CDT,Max TemperatureF,Mean TemperatureF,Min TemperatureF,Max Dew PointF,MeanDew PointF,Min DewpointF,Max Humidity, Mean Humidity, Min Humidity, Max Sea Level PressureIn, Mean Sea Level PressureIn, Min Sea Level PressureIn, Max VisibilityMiles, Mean VisibilityMiles, Min VisibilityMiles, Max Wind SpeedMPH, Mean Wind SpeedMPH, Max Gust SpeedMPH,PrecipitationIn, CloudCover, Events, WindDirDegrees
2013-7-1,78,68,57,55,51,48,77,55,36,30.09,30.06,30.01,10,10,9,18,9,29,0.00,0,,42
2013-7-2,78,68,55,57,52,45,88,62,36,30.11,30.08,30.05,10,10,10,15,6,21,0.00,0,,41
2013-7-3,78,66,53,61,55,48,94,71,47,30.09,30.06,30.03,10,10,5,8,3,,0.00,2,,349
2013-7-4,84,68,53,64,60,52,94,70,40,30.10,30.06,30.01,10,9,3,8,3,,0.00,1,,152
2013-7-5,86,72,59,66,62,55,88,67,45,30.09,30.05,30.01,10,10,6,13,4,16,0.00,0,,157
2013-7-6,87,74,60,70,64,57,94,69,46,30.06,30.02,29.97,10,9,2,9,4,,0.00,1,,159
2013-7-7,93,80,69,72,68,66,88,68,43,30.01,29.98,29.95,10,10,7,10,4,,0.00,1,,199
2013-7-8,89,79,69,75,72,68,94,75,59,30.05,29.98,29.96,10,10,3,16,7,22,0.00,2,Thunderstorm,237
2013-7-9,87,80,73,77,74,70,94,83,66,30.01,29.95,29.88,10,9,3,17,3,21,0.01,3,Thunderstorm,231
2013-7-10,86,74,64,75,66,57,94,69,45,30.03,29.94,29.87,10,10,5,15,6,21,0.00,2,,344
2013-7-11,80,70,60,64,58,55,88,65,42,30.13,30.09,30.04,10,10,10,13,3,17,0.00,0,,57
2013-7-12,84,68,53,64,57,52,94,69,39,30.17,30.12,30.08,10,9,3,8,3,,0.00,0,,110
2013-7-13,84,68,53,64,60,50,94,71,48,30.16,30.13,30.09,10,9,3,10,4,,0.00,0,,116
2013-7-14,87,74,62,72,67,59,94,75,55,30.21,30.17,30.14,10,10,5,10,6,,0.00,1,,97
2013-7-15,91,80,68,75,71,66,94,76,52,30.27,30.24,30.20,10,9,3,7,5,,0.00,1,,101
2013-7-16,93,82,71,75,73,70,94,75,52,30.31,30.28,30.25,10,10,4,8,3,,0.00,1,,177
2013-7-17,96,82,69,75,72,66,100,71,49,30.33,30.27,30.20,10,9,3,8,2,,0.00,1,,243
2013-7-18,96,82,69,75,73,68,100,70,44,30.21,30.10,29.97,10,9,1,13,3,20,0.00,0,,236
2013-7-19,98,84,69,73,71,66,94,67,42,29.97,29.87,29.78,10,10,7,30,8,39,0.31,1,Thunderstorm,249
2013-7-20,89,78,66,70,65,63,88,65,43,29.95,29.90,29.85,10,10,10,9,4,,0.31,1,,348
2013-7-21,87,75,64,72,67,61,94,78,55,29.96,29.92,29.87,10,9,3,13,5,17,0.00,1,,112
2013-7-22,89,76,62,72,67,61,94,74,51,29.90,29.82,29.75,10,8,1,26,4,32,0.13,2,Thunderstorm,221
2013-7-23,80,70,59,64,60,54,94,69,44,29.99,29.86,29.76,10,10,10,15,8,20,0.00,2,,344
2013-7-24,78,66,53,55,53,52,94,69,42,30.09,30.05,29.99,10,10,10,10,4,,0.00,1,,45
2013-7-25,82,66,51,61,56,48,94,67,42,30.12,30.08,30.04,10,10,9,9,3,,0.00,1,,203
2013-7-26,78,68,59,68,61,54,94,78,50,30.04,29.96,29.90,10,10,7,17,6,25,0.06,5,Thunderstorm,247
2013-7-27,64,58,51,55,49,45,88,68,49,29.98,29.96,29.93,10,10,8,18,9,23,0.00,5,,316
2013-7-28,73,62,53,50,48,45,82,62,43,30.06,29.98,29.91,10,10,10,17,8,22,0.00,4,,293
2013-7-29,80,62,44,55,52,43,94,68,42,30.17,30.13,30.06,10,10,1,12,3,,0.00,1,,281
2013-7-30,66,60,55,63,60,52,94,89,82,30.17,30.12,30.06,10,7,2,13,6,16,0.08,6,,111
2013-7-31,80,71,60,66,64,57,94,83,58,30.06,30.03,29.98,10,6,0,9,5,,0.09,6,Thunderstorm,351